Overview Statistics Trail Chart Weather Telemetry Raw packets
 

This is the latest recevied weather packets stored in our database for station/object EA1GEC-10. If no packets are shown the sender has not sent any weather packets the latest 10 day(s).

<< 28 29 30 31 32 33 34 >>
Time Temp. Humidity Pressure Rain* Wind** Luminosity Snow
1777131585 21.67° C 48% 1024.1 hPa - - - -
1777130685 21.67° C 47% 1024 hPa - - - -
1777129785 22.22° C 47% 1024.2 hPa - - - -
1777128885 22.22° C 47% 1024.1 hPa - - - -
1777127985 22.78° C 47% 1024.2 hPa - - - -
1777127085 22.78° C 47% 1024.4 hPa - - - -
1777126185 23.89° C 45% 1024.6 hPa - - - -
1777125285 23.89° C 41% 1024.5 hPa - - - -
1777124393 25.56° C 35% 1024.6 hPa - - - -
1777123493 37.22° C 26% 1024.9 hPa - - - -
1777122584 38.89° C 26% 1025.1 hPa - - - -
1777121683 36.11° C 34% 1025.2 hPa - - - -
1777120783 22.78° C 39% 1025 hPa - - - -
1777119883 37.22° C 29% 1025.4 hPa - - - -
1777118983 37.22° C 31% 1025.5 hPa - - - -
1777118083 27.22° C 44% 1025.7 hPa - - - -
1777117183 23.33° C 46% 1025.8 hPa - - - -
1777116283 22.78° C 47% 1025.9 hPa - - - -
1777115392 23.33° C 46% 1026.1 hPa - - - -
1777114492 22.78° C 52% 1026.3 hPa - - - -
1777113583 20.56° C 54% 1026.5 hPa - - - -
1777112682 20° C 55% 1026.5 hPa - - - -
1777111782 19.44° C 57% 1026.5 hPa - - - -
1777110882 18.89° C 59% 1026.6 hPa - - - -
1777109982 17.78° C 60% 1026.6 hPa - - - -

* Rain since midnight (hover to see other rain measurements)
** Current wind speed in m/s (hover to see current wind gust speed)